createdAt,value
2018-09-20T00:00:59.711Z,21.73
2018-09-20T00:01:59.870Z,21.73
2018-09-20T00:02:59.736Z,21.68
2018-09-20T00:04:00.220Z,21.73
2018-09-20T00:04:59.942Z,21.71
2018-09-20T00:06:00.155Z,21.73
2018-09-20T00:06:59.833Z,21.7
2018-09-20T00:08:00.075Z,21.73
2018-09-20T00:08:59.818Z,21.68
2018-09-20T00:09:59.921Z,21.71
2018-09-20T00:11:00.017Z,21.7
2018-09-20T00:12:00.306Z,21.7
2018-09-20T00:13:00.007Z,21.7
2018-09-20T00:13:59.866Z,21.68
2018-09-20T00:14:59.758Z,21.71
2018-09-20T00:15:59.794Z,21.7
2018-09-20T00:16:59.836Z,21.7
2018-09-20T00:18:00.149Z,21.68
2018-09-20T00:18:59.832Z,21.7
2018-09-20T00:19:59.859Z,21.71
2018-09-20T00:20:59.808Z,21.71
2018-09-20T00:21:59.728Z,21.7
2018-09-20T00:22:59.637Z,21.71
2018-09-20T00:24:00.472Z,21.68
2018-09-20T00:25:00.057Z,21.7
2018-09-20T00:25:59.934Z,21.7
2018-09-20T00:27:00.079Z,21.67
2018-09-20T00:27:59.823Z,21.68
2018-09-20T00:28:59.826Z,21.68
2018-09-20T00:29:59.875Z,21.7
2018-09-20T00:30:59.865Z,21.68
2018-09-20T00:32:00.023Z,21.68
2018-09-20T00:32:59.910Z,21.68
2018-09-20T00:33:59.775Z,21.7
2018-09-20T00:35:00.021Z,21.67
2018-09-20T00:36:00.003Z,21.66
2018-09-20T00:36:59.718Z,21.67
2018-09-20T00:37:59.957Z,21.67
2018-09-20T00:39:00.061Z,21.67
2018-09-20T00:39:59.771Z,21.68
2018-09-20T00:40:59.934Z,21.66
2018-09-20T00:41:59.737Z,21.66
2018-09-20T00:43:00.148Z,21.68
2018-09-20T00:43:59.747Z,21.68
2018-09-20T00:44:59.856Z,21.67
2018-09-20T00:45:59.746Z,21.68
2018-09-20T00:46:59.840Z,21.67
2018-09-20T00:47:59.678Z,21.66
2018-09-20T00:48:59.683Z,21.68
2018-09-20T00:49:59.949Z,21.67
2018-09-20T00:51:00.317Z,21.68
2018-09-20T00:51:59.789Z,21.67
2018-09-20T00:52:59.879Z,21.66
2018-09-20T00:54:00.672Z,21.68
2018-09-20T00:55:00.277Z,21.68
2018-09-20T00:56:00.150Z,21.67
2018-09-20T00:56:59.763Z,21.67
2018-09-20T00:57:59.764Z,21.67
2018-09-20T00:58:59.795Z,21.68
2018-09-20T01:00:00.162Z,21.64
2018-09-20T01:00:59.759Z,21.66
2018-09-20T01:02:00.262Z,21.66
2018-09-20T01:02:59.776Z,21.66
2018-09-20T01:04:00.246Z,21.64
2018-09-20T01:05:00.084Z,21.67
2018-09-20T01:05:59.682Z,21.64
2018-09-20T01:07:00.049Z,21.66
2018-09-20T01:07:59.863Z,21.66
2018-09-20T01:08:59.797Z,21.64
2018-09-20T01:09:59.664Z,21.64
2018-09-20T01:10:59.853Z,21.63
2018-09-20T01:11:59.802Z,21.66
2018-09-20T01:12:59.766Z,21.66
2018-09-20T01:13:59.885Z,21.63
2018-09-20T01:15:00.007Z,21.61
2018-09-20T01:15:59.856Z,21.63
2018-09-20T01:16:59.840Z,21.63
2018-09-20T01:17:59.963Z,21.63
2018-09-20T01:18:59.769Z,21.66
2018-09-20T01:19:59.889Z,21.66
2018-09-20T01:20:59.716Z,21.63
2018-09-20T01:21:59.847Z,21.63
2018-09-20T01:22:59.745Z,21.61
2018-09-20T01:23:59.715Z,21.63
2018-09-20T01:24:59.846Z,21.61
2018-09-20T01:25:59.784Z,21.61
2018-09-20T01:26:59.806Z,21.64
2018-09-20T01:27:59.757Z,21.61
2018-09-20T01:28:59.914Z,21.63
2018-09-20T01:30:00.026Z,21.63
2018-09-20T01:30:59.703Z,21.6
2018-09-20T01:31:59.891Z,21.63
2018-09-20T01:32:59.799Z,21.61
2018-09-20T01:34:00.172Z,21.63
2018-09-20T01:34:59.730Z,21.61
2018-09-20T01:35:59.757Z,21.61
2018-09-20T01:36:59.642Z,21.61
2018-09-20T01:37:59.971Z,21.61
2018-09-20T01:38:59.702Z,21.61
2018-09-20T01:39:59.673Z,21.61
2018-09-20T01:40:59.848Z,21.61
2018-09-20T01:41:59.747Z,21.61
2018-09-20T01:42:59.767Z,21.6
2018-09-20T01:43:59.711Z,21.61
2018-09-20T01:44:59.823Z,21.59
2018-09-20T01:45:59.828Z,21.6
2018-09-20T01:46:59.833Z,21.6
2018-09-20T01:47:59.986Z,21.6
2018-09-20T01:48:59.761Z,21.61
2018-09-20T01:49:59.852Z,21.59
2018-09-20T01:50:59.688Z,21.6
2018-09-20T01:51:59.956Z,21.6
2018-09-20T01:53:00.013Z,21.59
2018-09-20T01:54:00.055Z,21.6
2018-09-20T01:54:59.781Z,21.6
2018-09-20T01:55:59.931Z,21.59
2018-09-20T01:57:00.014Z,21.61
2018-09-20T01:57:59.894Z,21.59
2018-09-20T01:58:59.881Z,21.6
2018-09-20T01:59:59.969Z,21.6
2018-09-20T02:00:59.926Z,21.63
2018-09-20T02:01:59.941Z,21.59
2018-09-20T02:02:59.736Z,21.59
2018-09-20T02:03:59.926Z,21.6
2018-09-20T02:04:59.947Z,21.59
2018-09-20T02:05:59.693Z,21.57
2018-09-20T02:06:59.853Z,21.59
2018-09-20T02:07:59.798Z,21.6
2018-09-20T02:08:59.779Z,21.57
2018-09-20T02:10:00.240Z,21.6
2018-09-20T02:10:59.659Z,21.59
2018-09-20T02:11:59.902Z,21.59
2018-09-20T02:12:59.889Z,21.57
2018-09-20T02:13:59.825Z,21.6
2018-09-20T02:14:59.954Z,21.59
2018-09-20T02:15:59.632Z,21.59
2018-09-20T02:16:59.873Z,21.59
2018-09-20T02:17:59.798Z,21.57
2018-09-20T02:18:59.665Z,21.59
2018-09-20T02:19:59.674Z,21.59
2018-09-20T02:20:59.813Z,21.59
2018-09-20T02:21:59.708Z,21.59
2018-09-20T02:22:59.759Z,21.59
2018-09-20T02:24:00.115Z,21.57
2018-09-20T02:24:59.801Z,21.6
2018-09-20T02:25:59.745Z,21.6
2018-09-20T02:27:00.024Z,21.57
2018-09-20T02:27:59.860Z,21.6
2018-09-20T02:28:59.667Z,21.59
2018-09-20T02:29:59.744Z,21.57
2018-09-20T02:30:59.967Z,21.6
2018-09-20T02:31:59.684Z,21.57
2018-09-20T02:32:59.807Z,21.59
2018-09-20T02:33:59.904Z,21.57
2018-09-20T02:34:59.844Z,21.56
2018-09-20T02:35:59.727Z,21.54
2018-09-20T02:36:59.743Z,21.57
2018-09-20T02:37:59.719Z,21.56
2018-09-20T02:38:59.878Z,21.6
2018-09-20T02:39:59.950Z,21.57
2018-09-20T02:40:59.750Z,21.6
2018-09-20T02:41:59.820Z,21.59
2018-09-20T02:42:59.740Z,21.59
2018-09-20T02:43:59.730Z,21.59
2018-09-20T02:44:59.760Z,21.57
2018-09-20T02:46:00.070Z,21.6
2018-09-20T02:46:59.779Z,21.57
2018-09-20T02:47:59.780Z,21.59
2018-09-20T02:48:59.882Z,21.6
2018-09-20T02:49:59.823Z,21.59
2018-09-20T02:50:59.781Z,21.57
2018-09-20T02:51:59.841Z,21.54
2018-09-20T02:52:59.721Z,21.56
2018-09-20T02:54:00.248Z,21.56
2018-09-20T02:54:59.767Z,21.57
2018-09-20T02:55:59.783Z,21.59
2018-09-20T02:56:59.720Z,21.6
2018-09-20T02:57:59.832Z,21.59
2018-09-20T02:59:00.899Z,21.54
2018-09-20T02:59:59.781Z,21.57
2018-09-20T03:00:59.836Z,21.59
2018-09-20T03:01:59.660Z,21.6
2018-09-20T03:03:00.033Z,21.59
2018-09-20T03:03:59.826Z,21.57
2018-09-20T03:04:59.907Z,21.6
2018-09-20T03:05:59.887Z,21.57
2018-09-20T03:06:59.765Z,21.56
2018-09-20T03:07:59.763Z,21.57
2018-09-20T03:08:59.851Z,21.59
2018-09-20T03:09:59.787Z,21.57
2018-09-20T03:10:59.799Z,21.56
2018-09-20T03:12:00.027Z,21.56
2018-09-20T03:12:59.676Z,21.57
2018-09-20T03:14:00.105Z,21.57
2018-09-20T03:14:59.754Z,21.56
2018-09-20T03:16:00.097Z,21.57
2018-09-20T03:16:59.653Z,21.57
2018-09-20T03:17:59.864Z,21.57
2018-09-20T03:18:59.837Z,21.57
2018-09-20T03:20:00.007Z,21.56
2018-09-20T03:20:59.836Z,21.57
2018-09-20T03:21:59.615Z,21.57
2018-09-20T03:22:59.919Z,21.54
2018-09-20T03:23:59.895Z,21.56
2018-09-20T03:24:59.833Z,21.56
2018-09-20T03:26:00.012Z,21.54
2018-09-20T03:26:59.895Z,21.56
2018-09-20T03:27:59.728Z,21.56
2018-09-20T03:28:59.596Z,21.57
2018-09-20T03:29:59.949Z,21.56
2018-09-20T03:30:59.866Z,21.56
2018-09-20T03:32:00.018Z,21.54
2018-09-20T03:32:59.749Z,21.57
2018-09-20T03:33:59.790Z,21.54
2018-09-20T03:35:00.092Z,21.54
2018-09-20T03:35:59.832Z,21.54
2018-09-20T03:36:59.836Z,21.53
2018-09-20T03:37:59.855Z,21.56
2018-09-20T03:39:00.042Z,21.54
2018-09-20T03:39:59.727Z,21.54
2018-09-20T03:40:59.875Z,21.54
2018-09-20T03:41:59.887Z,21.54
2018-09-20T03:43:00.117Z,21.56
2018-09-20T03:43:59.798Z,21.53
2018-09-20T03:44:59.893Z,21.56
2018-09-20T03:45:59.823Z,21.57
2018-09-20T03:46:59.782Z,21.56
2018-09-20T03:47:59.677Z,21.59
2018-09-20T03:48:59.977Z,21.57
2018-09-20T03:49:59.813Z,21.54
2018-09-20T03:50:59.916Z,21.51
2018-09-20T03:51:59.814Z,21.56
2018-09-20T03:52:59.813Z,21.57
2018-09-20T03:53:59.722Z,21.54
2018-09-20T03:54:59.722Z,21.54
2018-09-20T03:55:59.685Z,21.53
2018-09-20T03:56:59.777Z,21.56
2018-09-20T03:57:59.827Z,21.56
2018-09-20T03:58:59.698Z,21.57
2018-09-20T03:59:59.740Z,21.54
2018-09-20T04:00:59.828Z,21.54
2018-09-20T04:01:59.721Z,21.54
2018-09-20T04:02:59.845Z,21.53
2018-09-20T04:03:59.841Z,21.51
2018-09-20T04:04:59.823Z,21.53
2018-09-20T04:05:59.769Z,21.54
2018-09-20T04:06:59.992Z,21.54
2018-09-20T04:07:59.743Z,21.53
2018-09-20T04:08:59.896Z,21.53
2018-09-20T04:09:59.944Z,21.53
2018-09-20T04:10:59.821Z,21.53
2018-09-20T04:12:00.112Z,21.53
2018-09-20T04:12:59.792Z,21.53
2018-09-20T04:13:59.758Z,21.54
2018-09-20T04:15:00.038Z,21.54
2018-09-20T04:15:59.986Z,21.53
2018-09-20T04:16:59.897Z,21.54
2018-09-20T04:18:00.014Z,21.54
2018-09-20T04:19:00.152Z,21.53
2018-09-20T04:19:59.797Z,21.53
2018-09-20T04:20:59.910Z,21.53
2018-09-20T04:21:59.792Z,21.53
2018-09-20T04:22:59.923Z,21.53
2018-09-20T04:23:59.815Z,21.51
2018-09-20T04:24:59.756Z,21.53
2018-09-20T04:25:59.844Z,21.53
2018-09-20T04:26:59.877Z,21.53
2018-09-20T04:27:59.712Z,21.54
2018-09-20T04:28:59.768Z,21.53
2018-09-20T04:30:00.003Z,21.54
2018-09-20T04:31:00.004Z,21.54
2018-09-20T04:31:59.781Z,21.53
2018-09-20T04:32:59.893Z,21.51
2018-09-20T04:33:59.777Z,21.51
2018-09-20T04:34:59.849Z,21.51
2018-09-20T04:35:59.902Z,21.51
2018-09-20T04:36:59.797Z,21.53
2018-09-20T04:37:59.739Z,21.53
2018-09-20T04:38:59.780Z,21.51
2018-09-20T04:39:59.828Z,21.5
2018-09-20T04:40:59.746Z,21.53
2018-09-20T04:41:59.728Z,21.5
2018-09-20T04:42:59.786Z,21.51
2018-09-20T04:44:00.019Z,21.51
2018-09-20T04:44:59.669Z,21.53
2018-09-20T04:46:00.073Z,21.53
2018-09-20T04:46:59.899Z,21.51
2018-09-20T04:48:00.033Z,21.5
2018-09-20T04:48:59.948Z,21.53
2018-09-20T04:50:00.246Z,21.49
2018-09-20T04:50:59.749Z,21.5
2018-09-20T04:51:59.768Z,21.5
2018-09-20T04:53:00.747Z,21.49
2018-09-20T04:53:59.951Z,21.51
2018-09-20T04:54:59.829Z,21.51
2018-09-20T04:55:59.583Z,21.46
2018-09-20T04:56:59.683Z,21.47
2018-09-20T04:58:00.002Z,21.49
2018-09-20T04:58:59.767Z,21.49
2018-09-20T05:00:00.419Z,21.46
2018-09-20T05:00:59.797Z,21.46
2018-09-20T05:01:59.769Z,21.46
2018-09-20T05:02:59.750Z,21.49
2018-09-20T05:03:59.787Z,21.47
2018-09-20T05:04:59.861Z,21.5
2018-09-20T05:05:59.792Z,21.5
2018-09-20T05:06:59.835Z,21.44
2018-09-20T05:07:59.784Z,21.43
2018-09-20T05:08:59.638Z,21.44
2018-09-20T05:10:00.078Z,21.46
2018-09-20T05:10:59.737Z,21.44
2018-09-20T05:11:59.782Z,21.46
2018-09-20T05:12:59.650Z,21.43
2018-09-20T05:13:59.783Z,21.46
2018-09-20T05:14:59.751Z,21.44
2018-09-20T05:15:59.793Z,21.44
2018-09-20T05:16:59.868Z,21.46
2018-09-20T05:17:59.692Z,21.46
2018-09-20T05:18:59.688Z,21.46
2018-09-20T05:19:59.648Z,21.47
2018-09-20T05:20:59.828Z,21.46
2018-09-20T05:21:59.556Z,21.47
2018-09-20T05:22:59.774Z,21.47
2018-09-20T05:23:59.647Z,21.46
2018-09-20T05:24:59.778Z,21.46
2018-09-20T05:25:59.730Z,21.47
2018-09-20T05:26:59.718Z,21.47
2018-09-20T05:27:59.680Z,21.46
2018-09-20T05:28:59.637Z,21.49
2018-09-20T05:29:59.712Z,21.47
2018-09-20T05:30:59.671Z,21.49
2018-09-20T05:31:59.550Z,21.5
2018-09-20T05:32:59.857Z,21.46
2018-09-20T05:33:59.653Z,21.49
2018-09-20T05:35:00.052Z,21.47
2018-09-20T05:35:59.604Z,21.47
2018-09-20T05:36:59.707Z,21.5
2018-09-20T05:37:59.740Z,21.46
2018-09-20T05:39:00.117Z,21.44
2018-09-20T05:39:59.977Z,21.46
2018-09-20T05:41:00.217Z,21.46
2018-09-20T05:41:59.749Z,21.46
2018-09-20T05:42:59.813Z,21.46
2018-09-20T05:43:59.691Z,21.49
2018-09-20T05:44:59.732Z,21.49
2018-09-20T05:45:59.690Z,21.46
2018-09-20T05:46:59.765Z,21.46
2018-09-20T05:47:59.820Z,21.47
2018-09-20T05:48:59.755Z,21.44
2018-09-20T05:49:59.630Z,21.46
2018-09-20T05:50:59.860Z,21.47
2018-09-20T05:51:59.873Z,21.46
2018-09-20T05:52:59.859Z,21.46
2018-09-20T05:53:59.527Z,21.44
2018-09-20T05:54:59.958Z,21.46
2018-09-20T05:55:59.694Z,21.49
2018-09-20T05:56:59.544Z,21.49
2018-09-20T05:57:59.630Z,21.46
2018-09-20T05:58:59.999Z,21.49
2018-09-20T05:59:59.819Z,21.43
2018-09-20T06:00:59.546Z,21.42
2018-09-20T06:01:59.770Z,21.42
2018-09-20T06:02:59.836Z,21.42
2018-09-20T06:03:59.924Z,21.44
2018-09-20T06:04:59.975Z,21.44
2018-09-20T06:06:00.920Z,21.43
2018-09-20T06:06:59.873Z,21.42
2018-09-20T06:07:59.735Z,21.44
2018-09-20T06:08:59.791Z,21.46
2018-09-20T06:09:59.902Z,21.43
2018-09-20T06:10:59.730Z,21.43
2018-09-20T06:11:59.796Z,21.44
2018-09-20T06:12:59.680Z,21.46
2018-09-20T06:13:59.756Z,21.46
2018-09-20T06:14:59.928Z,21.42
2018-09-20T06:15:59.797Z,21.4
2018-09-20T06:16:59.870Z,21.3
2018-09-20T06:17:59.841Z,21.26
2018-09-20T06:18:59.834Z,21.22
2018-09-20T06:19:59.787Z,21.19
2018-09-20T06:20:59.850Z,21.14
2018-09-20T06:21:59.847Z,21.12
2018-09-20T06:22:59.708Z,21.14
2018-09-20T06:23:59.559Z,21.15
2018-09-20T06:24:59.906Z,21.19
2018-09-20T06:25:59.701Z,21.21
2018-09-20T06:26:59.737Z,21.23
2018-09-20T06:28:00.045Z,21.26
2018-09-20T06:28:59.573Z,21.29
2018-09-20T06:29:59.672Z,21.29
2018-09-20T06:30:59.863Z,21.3
2018-09-20T06:31:59.695Z,21.29
2018-09-20T06:32:59.696Z,21.33
2018-09-20T06:33:59.728Z,21.34
2018-09-20T06:35:00.434Z,21.36
2018-09-20T06:35:59.892Z,21.34
2018-09-20T06:37:00.843Z,21.4
2018-09-20T06:37:59.752Z,21.39
2018-09-20T06:38:59.651Z,21.42
2018-09-20T06:39:59.724Z,21.4
2018-09-20T06:41:00.725Z,21.4
2018-09-20T06:41:59.737Z,21.42
2018-09-20T06:42:59.582Z,21.46
2018-09-20T06:43:59.751Z,21.44
2018-09-20T06:44:59.552Z,21.49
2018-09-20T06:45:59.658Z,21.46
2018-09-20T06:46:59.693Z,21.47
2018-09-20T06:47:59.576Z,21.47
2018-09-20T06:48:59.592Z,21.5
2018-09-20T06:49:59.952Z,21.51
2018-09-20T06:50:59.641Z,21.53
2018-09-20T06:51:59.703Z,21.53
2018-09-20T06:52:59.768Z,21.53
2018-09-20T06:53:59.776Z,21.54
2018-09-20T06:54:59.546Z,21.56
2018-09-20T06:55:59.665Z,21.56
2018-09-20T06:57:00.164Z,21.54
2018-09-20T06:57:59.739Z,21.57
2018-09-20T06:58:59.519Z,21.57
2018-09-20T06:59:59.517Z,21.59
2018-09-20T07:00:59.790Z,21.59
2018-09-20T07:01:59.694Z,21.6
2018-09-20T07:03:00.744Z,21.59
2018-09-20T07:03:59.730Z,21.59
2018-09-20T07:04:59.886Z,21.6
2018-09-20T07:05:59.655Z,21.6
2018-09-20T07:06:59.917Z,21.61
2018-09-20T07:07:59.754Z,21.6
2018-09-20T07:08:59.569Z,21.59
2018-09-20T07:09:59.794Z,21.6
2018-09-20T07:10:59.768Z,21.61
2018-09-20T07:11:59.869Z,21.59
2018-09-20T07:12:59.756Z,21.63
2018-09-20T07:13:59.724Z,21.6
2018-09-20T07:14:59.756Z,21.63
2018-09-20T07:16:00.058Z,21.63
2018-09-20T07:16:59.748Z,21.61
2018-09-20T07:17:59.532Z,21.61
2018-09-20T07:19:00.300Z,21.59
2018-09-20T07:19:59.731Z,21.61
2018-09-20T07:20:59.633Z,21.63
2018-09-20T07:21:59.668Z,21.63
2018-09-20T07:22:59.943Z,21.61
2018-09-20T07:24:00.210Z,21.63
2018-09-20T07:25:00.228Z,21.64
2018-09-20T07:25:59.665Z,21.63
2018-09-20T07:26:59.734Z,21.63
2018-09-20T07:27:59.995Z,21.64
2018-09-20T07:29:00.139Z,21.63
2018-09-20T07:29:59.745Z,21.63
2018-09-20T07:30:59.761Z,21.64
2018-09-20T07:31:59.542Z,21.63
2018-09-20T07:32:59.857Z,21.61
2018-09-20T07:33:59.721Z,21.59
2018-09-20T07:34:59.706Z,21.6
2018-09-20T07:35:59.693Z,21.59
2018-09-20T07:36:59.999Z,21.61
2018-09-20T07:37:59.690Z,21.63
2018-09-20T07:38:59.648Z,21.63
2018-09-20T07:39:59.619Z,21.61
2018-09-20T07:40:59.514Z,21.61
2018-09-20T07:41:59.719Z,21.64
2018-09-20T07:42:59.585Z,21.64
2018-09-20T07:43:59.551Z,21.66
2018-09-20T07:44:59.679Z,21.68
2018-09-20T07:45:59.601Z,21.67
2018-09-20T07:46:59.523Z,21.73
2018-09-20T07:47:59.761Z,21.71
2018-09-20T07:48:59.881Z,21.73
2018-09-20T07:49:59.794Z,21.71
2018-09-20T07:50:59.884Z,21.76
2018-09-20T07:51:59.826Z,21.73
2018-09-20T07:52:59.692Z,21.76
2018-09-20T07:53:59.528Z,21.77
2018-09-20T07:54:59.776Z,21.76
2018-09-20T07:55:59.726Z,21.78
2018-09-20T07:56:59.623Z,21.77
2018-09-20T07:57:59.576Z,21.77
2018-09-20T07:58:59.854Z,21.76
2018-09-20T07:59:59.879Z,21.77
2018-09-20T08:00:59.772Z,21.77
2018-09-20T08:02:01.072Z,21.78
2018-09-20T08:02:59.562Z,21.78
2018-09-20T08:03:59.964Z,21.81
2018-09-20T08:04:59.645Z,21.8
2018-09-20T08:06:00.031Z,21.81
2018-09-20T08:07:00.615Z,21.82
2018-09-20T08:07:59.751Z,21.81
2018-09-20T08:08:59.454Z,21.82
2018-09-20T08:09:59.817Z,21.84
2018-09-20T08:10:59.513Z,21.82
2018-09-20T08:11:59.878Z,21.81
2018-09-20T08:13:01.288Z,21.88
2018-09-20T08:14:00.008Z,21.82
2018-09-20T08:14:59.553Z,21.87
2018-09-20T08:15:59.857Z,21.87
2018-09-20T08:16:59.530Z,21.84
2018-09-20T08:17:59.773Z,21.87
2018-09-20T08:18:59.642Z,21.87
2018-09-20T08:19:59.709Z,21.89
2018-09-20T08:20:59.603Z,21.89
2018-09-20T08:21:59.795Z,21.87
2018-09-20T08:22:59.673Z,21.88
2018-09-20T08:23:59.971Z,21.87
2018-09-20T08:24:59.936Z,21.84
2018-09-20T08:25:59.637Z,21.87
2018-09-20T08:26:59.635Z,21.85
2018-09-20T08:27:59.560Z,21.87
2018-09-20T08:28:59.813Z,21.85
2018-09-20T08:29:59.990Z,21.87
2018-09-20T08:30:59.950Z,21.88
2018-09-20T08:31:59.797Z,21.89
2018-09-20T08:32:59.651Z,21.88
2018-09-20T08:33:59.700Z,21.87
2018-09-20T08:34:59.571Z,21.88
2018-09-20T08:35:59.726Z,21.92
2018-09-20T08:37:00.751Z,21.94
2018-09-20T08:37:59.855Z,21.94
2018-09-20T08:38:59.722Z,21.96
2018-09-20T08:39:59.844Z,21.94
2018-09-20T08:40:59.471Z,21.95
2018-09-20T08:41:59.641Z,21.96
2018-09-20T08:42:59.478Z,21.98
2018-09-20T08:43:59.917Z,21.94
2018-09-20T08:44:59.813Z,21.95
2018-09-20T08:45:59.860Z,21.95
2018-09-20T08:46:59.710Z,21.96
2018-09-20T08:47:59.642Z,21.99
2018-09-20T08:48:59.611Z,22.01
2018-09-20T08:49:59.827Z,22.01
2018-09-20T08:51:00.528Z,21.98
2018-09-20T08:51:59.660Z,22.01
2018-09-20T08:52:59.720Z,22.01
2018-09-20T08:53:59.509Z,22.04
2018-09-20T08:54:59.575Z,21.98
2018-09-20T08:55:59.747Z,22.01
2018-09-20T08:57:00.876Z,21.99
2018-09-20T08:57:59.760Z,21.98
2018-09-20T08:58:59.496Z,21.96
2018-09-20T08:59:59.479Z,21.96
2018-09-20T09:00:59.619Z,21.95
2018-09-20T09:01:59.563Z,21.96
2018-09-20T09:02:59.804Z,21.95
2018-09-20T09:03:59.621Z,21.99
2018-09-20T09:04:59.639Z,21.99
2018-09-20T09:05:59.627Z,22.01
2018-09-20T09:06:59.733Z,21.98
2018-09-20T09:07:59.643Z,21.98
2018-09-20T09:08:59.487Z,21.99
2018-09-20T09:10:00.075Z,22.01
2018-09-20T09:10:59.857Z,22.01
2018-09-20T09:12:00.749Z,22.02
2018-09-20T09:13:00.124Z,22.01
2018-09-20T09:13:59.789Z,22.02
2018-09-20T09:14:59.775Z,22.02
2018-09-20T09:15:59.485Z,22.06
2018-09-20T09:16:59.558Z,22.05
2018-09-20T09:17:59.566Z,22.02
2018-09-20T09:18:59.765Z,22.01
2018-09-20T09:19:59.691Z,21.99
2018-09-20T09:20:59.729Z,22.02
2018-09-20T09:21:59.978Z,22.02
2018-09-20T09:22:59.515Z,22.02
2018-09-20T09:24:00.067Z,21.98
2018-09-20T09:24:59.850Z,21.99
2018-09-20T09:25:59.764Z,22.01
2018-09-20T09:26:59.691Z,22.01
2018-09-20T09:27:59.526Z,22.02
2018-09-20T09:28:59.798Z,21.99
2018-09-20T09:29:59.733Z,21.99
2018-09-20T09:31:00.002Z,22.01
2018-09-20T09:31:59.509Z,21.98
2018-09-20T09:32:59.600Z,22.02
2018-09-20T09:34:00.170Z,22.02
2018-09-20T09:34:59.690Z,22.04
2018-09-20T09:35:59.721Z,22.04
2018-09-20T09:36:59.842Z,22.01
2018-09-20T09:37:59.854Z,22.04
2018-09-20T09:38:59.541Z,22.04
2018-09-20T09:39:59.751Z,22.04
2018-09-20T09:40:59.799Z,22.01
2018-09-20T09:41:59.781Z,22.01
2018-09-20T09:42:59.449Z,22.01
2018-09-20T09:43:59.985Z,22.01
2018-09-20T09:45:00.020Z,21.98
2018-09-20T09:45:59.821Z,21.96
2018-09-20T09:46:59.601Z,21.98
2018-09-20T09:48:00.461Z,21.99
2018-09-20T09:48:59.682Z,21.99
2018-09-20T09:49:59.627Z,21.99
2018-09-20T09:50:59.817Z,22.02
2018-09-20T09:51:59.991Z,21.99
2018-09-20T09:52:59.781Z,22.02
2018-09-20T09:53:59.756Z,22.04
2018-09-20T09:54:59.480Z,22.06
2018-09-20T09:55:59.474Z,22.04
2018-09-20T09:56:59.755Z,22.06
2018-09-20T09:57:59.726Z,22.06
2018-09-20T09:58:59.824Z,22.02
2018-09-20T09:59:59.928Z,22.06
2018-09-20T10:00:59.725Z,22.06
2018-09-20T10:01:59.516Z,22.06
2018-09-20T10:03:00.144Z,22.05
2018-09-20T10:04:00.054Z,22.08
2018-09-20T10:04:59.835Z,22.08
2018-09-20T10:05:59.619Z,22.05
2018-09-20T10:07:00.802Z,22.02
2018-09-20T10:08:00.080Z,22.05
2018-09-20T10:08:59.988Z,22.05
2018-09-20T10:09:59.858Z,22.05
2018-09-20T10:10:59.481Z,22.04
2018-09-20T10:11:59.571Z,22.05
2018-09-20T10:12:59.746Z,22.05
2018-09-20T10:13:59.812Z,22.04
2018-09-20T10:14:59.837Z,22.04
2018-09-20T10:15:59.747Z,22.04
2018-09-20T10:16:59.788Z,22.01
2018-09-20T10:17:59.566Z,22.04
2018-09-20T10:18:59.594Z,22.02
2018-09-20T10:20:00.299Z,22.02
2018-09-20T10:20:59.458Z,22.02
2018-09-20T10:21:59.515Z,22.01
2018-09-20T10:22:59.559Z,22.02
2018-09-20T10:24:00.405Z,22.04
2018-09-20T10:24:59.598Z,22.05
2018-09-20T10:25:59.519Z,22.06
2018-09-20T10:26:59.642Z,22.05
2018-09-20T10:28:00.241Z,22.02
2018-09-20T10:28:59.787Z,22.02
2018-09-20T10:29:59.690Z,22.04
2018-09-20T10:30:59.699Z,22.05
2018-09-20T10:31:59.753Z,22.04
2018-09-20T10:32:59.760Z,22.08
2018-09-20T10:34:00.785Z,22.05
2018-09-20T10:34:59.698Z,22.06
2018-09-20T10:35:59.588Z,22.06
2018-09-20T10:36:59.771Z,22.06
2018-09-20T10:37:59.881Z,22.04
2018-09-20T10:38:59.843Z,22.04
2018-09-20T10:39:59.696Z,22.02
2018-09-20T10:40:59.639Z,22.02
2018-09-20T10:41:59.507Z,22.02
2018-09-20T10:42:59.814Z,22.01
2018-09-20T10:43:59.807Z,22.01
2018-09-20T10:44:59.576Z,22.02
2018-09-20T10:45:59.841Z,22.01
2018-09-20T10:46:59.899Z,22.04
2018-09-20T10:47:59.463Z,22.02
2018-09-20T10:48:59.464Z,22.01
2018-09-20T10:49:59.705Z,22.02
2018-09-20T10:51:00.256Z,22.04
2018-09-20T10:51:59.604Z,22.04
2018-09-20T10:52:59.551Z,22.06
2018-09-20T10:53:59.991Z,22.02
2018-09-20T10:54:59.623Z,22.02
2018-09-20T10:55:59.519Z,22.04
2018-09-20T10:56:59.920Z,22.04
2018-09-20T10:57:59.740Z,22.04
2018-09-20T10:58:59.616Z,22.02
2018-09-20T10:59:59.823Z,21.99
2018-09-20T11:00:59.935Z,22.01
2018-09-20T11:01:59.788Z,21.99
2018-09-20T11:03:00.810Z,21.99
2018-09-20T11:03:59.461Z,22.01
2018-09-20T11:04:59.966Z,21.99
2018-09-20T11:05:59.893Z,22.01
2018-09-20T11:06:59.721Z,22.01
2018-09-20T11:07:59.716Z,21.98
2018-09-20T11:08:59.810Z,21.99
2018-09-20T11:09:59.807Z,21.99
2018-09-20T11:11:00.982Z,21.98
2018-09-20T11:11:59.608Z,21.96
2018-09-20T11:12:59.554Z,21.96
2018-09-20T11:13:59.782Z,21.96
2018-09-20T11:14:59.843Z,21.99
2018-09-20T11:15:59.997Z,21.95
2018-09-20T11:16:59.859Z,21.96
2018-09-20T11:17:59.732Z,21.98
2018-09-20T11:18:59.767Z,21.96
2018-09-20T11:19:59.418Z,21.95
2018-09-20T11:20:59.522Z,21.98
2018-09-20T11:21:59.531Z,21.96
2018-09-20T11:22:59.801Z,21.94
2018-09-20T11:23:59.897Z,21.95
2018-09-20T11:24:59.393Z,21.94
2018-09-20T11:26:01.546Z,21.94
2018-09-20T11:26:59.915Z,21.95
2018-09-20T11:27:59.582Z,21.94
2018-09-20T11:28:59.718Z,21.94
2018-09-20T11:29:59.611Z,21.92
2018-09-20T11:30:59.957Z,21.92
2018-09-20T11:31:59.455Z,21.91
2018-09-20T11:32:59.498Z,21.91
2018-09-20T11:33:59.463Z,21.91
2018-09-20T11:34:59.785Z,21.91
2018-09-20T11:35:59.893Z,21.89
2018-09-20T11:36:59.574Z,21.91
2018-09-20T11:37:59.698Z,21.91
2018-09-20T11:38:59.526Z,21.91
2018-09-20T11:39:59.585Z,21.91
2018-09-20T11:40:59.428Z,21.89
2018-09-20T11:41:59.481Z,21.87
2018-09-20T11:42:59.732Z,21.88
2018-09-20T11:43:59.808Z,21.88
2018-09-20T11:44:59.708Z,21.89
2018-09-20T11:45:59.503Z,21.91
2018-09-20T11:46:59.506Z,21.91
2018-09-20T11:47:59.384Z,21.87
2018-09-20T11:48:59.686Z,21.89
2018-09-20T11:49:59.618Z,21.91
2018-09-20T11:50:59.565Z,21.92
2018-09-20T11:51:59.473Z,21.94
2018-09-20T11:52:59.537Z,21.91
2018-09-20T11:53:59.490Z,21.91
2018-09-20T11:54:59.530Z,21.91
2018-09-20T11:55:59.704Z,21.91
2018-09-20T11:56:59.596Z,21.89
2018-09-20T11:57:59.589Z,21.92
2018-09-20T11:58:59.627Z,21.92
2018-09-20T11:59:59.775Z,21.92
2018-09-20T12:01:00.090Z,21.94
2018-09-20T12:02:00.969Z,21.94
2018-09-20T12:02:59.657Z,21.94
2018-09-20T12:03:59.519Z,21.94
2018-09-20T12:04:59.796Z,21.92
2018-09-20T12:05:59.600Z,21.91
2018-09-20T12:06:59.587Z,21.94
2018-09-20T12:07:59.484Z,21.95
2018-09-20T12:08:59.648Z,21.92
2018-09-20T12:10:00.250Z,21.95
2018-09-20T12:10:59.863Z,21.94
2018-09-20T12:11:59.527Z,21.95
2018-09-20T12:13:00.003Z,21.98
2018-09-20T12:13:59.604Z,21.98
2018-09-20T12:14:59.606Z,21.99
2018-09-20T12:15:59.749Z,21.98
2018-09-20T12:16:59.534Z,22.01
2018-09-20T12:17:59.759Z,21.96
2018-09-20T12:18:59.344Z,21.99
2018-09-20T12:20:00.627Z,22.01
2018-09-20T12:20:59.777Z,22.04
2018-09-20T12:21:59.408Z,22.01
2018-09-20T12:22:59.890Z,22.05
2018-09-20T12:23:59.592Z,22.05
2018-09-20T12:24:59.808Z,22.05
2018-09-20T12:26:00.823Z,22.06
2018-09-20T12:26:59.735Z,22.08
2018-09-20T12:27:59.829Z,22.08
2018-09-20T12:28:59.870Z,22.06
2018-09-20T12:29:59.749Z,22.08
2018-09-20T12:30:59.850Z,22.11
2018-09-20T12:32:00.670Z,22.09
2018-09-20T12:32:59.717Z,22.08
2018-09-20T12:33:59.873Z,22.08
2018-09-20T12:34:59.718Z,22.11
2018-09-20T12:36:00.572Z,22.11
2018-09-20T12:36:59.429Z,22.13
2018-09-20T12:38:00.067Z,22.09
2018-09-20T12:38:59.545Z,22.15
2018-09-20T12:39:59.725Z,22.15
2018-09-20T12:40:59.611Z,22.12
2018-09-20T12:41:59.430Z,22.11
2018-09-20T12:43:01.594Z,22.12
2018-09-20T12:43:59.417Z,22.12
2018-09-20T12:44:59.596Z,22.13
2018-09-20T12:45:59.748Z,22.12
2018-09-20T12:46:59.843Z,22.13
2018-09-20T12:47:59.730Z,22.13
2018-09-20T12:48:59.681Z,22.13
2018-09-20T12:49:59.515Z,22.13
2018-09-20T12:50:59.795Z,22.16
2018-09-20T13:19:13.406Z,22.01
2018-09-20T13:20:14.302Z,22.09
2018-09-20T13:21:13.550Z,22.12
2018-09-20T13:22:13.660Z,22.15